createdAt,value
2023-02-04T00:00:20.859Z,7.20
2023-02-04T00:02:47.655Z,7.10
2023-02-04T00:05:16.704Z,7.10
2023-02-04T00:07:43.527Z,7.10
2023-02-04T00:10:10.476Z,7.10
2023-02-04T00:12:37.068Z,7.10
2023-02-04T00:15:04.532Z,7.10
2023-02-04T00:17:31.096Z,7.10
2023-02-04T00:19:57.673Z,7.10
2023-02-04T00:22:26.719Z,7.20
2023-02-04T00:24:53.299Z,7.20
2023-02-04T00:27:19.868Z,7.20
2023-02-04T00:29:46.419Z,7.20
2023-02-04T00:32:13.062Z,7.20
2023-02-04T00:34:39.681Z,7.20
2023-02-04T00:37:06.228Z,7.20
2023-02-04T00:39:32.808Z,7.20
2023-02-04T00:41:59.415Z,7.20
2023-02-04T00:44:26.000Z,7.20
2023-02-04T00:46:52.563Z,7.20
2023-02-04T00:49:19.109Z,7.20
2023-02-04T00:51:46.624Z,7.20
2023-02-04T00:54:15.818Z,7.20
2023-02-04T00:56:43.668Z,7.20
2023-02-04T00:59:10.915Z,7.20
2023-02-04T01:01:37.588Z,7.10
2023-02-04T01:04:04.566Z,7.10
2023-02-04T01:06:31.458Z,7.00
2023-02-04T01:08:58.017Z,7.00
2023-02-04T01:11:24.860Z,7.00
2023-02-04T01:13:51.416Z,6.90
2023-02-04T01:16:18.069Z,6.90
2023-02-04T01:18:44.836Z,6.90
2023-02-04T01:21:11.477Z,6.90
2023-02-04T01:23:38.154Z,6.90
2023-02-04T01:26:05.099Z,6.90
2023-02-04T01:28:31.794Z,6.90
2023-02-04T01:30:58.761Z,6.90
2023-02-04T01:33:25.401Z,6.90
2023-02-04T01:35:52.002Z,6.90
2023-02-04T01:38:18.587Z,6.90
2023-02-04T01:40:45.353Z,6.90
2023-02-04T01:43:12.344Z,6.90
2023-02-04T01:45:39.415Z,6.90
2023-02-04T01:48:07.430Z,6.90
2023-02-04T01:50:34.460Z,6.90
2023-02-04T01:53:01.266Z,6.80
2023-02-04T01:55:30.467Z,6.80
2023-02-04T01:57:58.767Z,6.90
2023-02-04T02:00:31.630Z,6.90
2023-02-04T02:02:59.652Z,6.80
2023-02-04T02:05:41.192Z,6.80
2023-02-04T02:08:08.558Z,6.80
2023-02-04T02:10:36.341Z,6.80
2023-02-04T02:13:04.213Z,6.80
2023-02-04T02:15:31.189Z,6.80
2023-02-04T02:17:57.915Z,6.70
2023-02-04T02:20:26.411Z,6.60
2023-02-04T02:23:07.292Z,6.70
2023-02-04T02:25:34.102Z,6.60
2023-02-04T02:28:01.769Z,6.60
2023-02-04T02:30:29.683Z,6.60
2023-02-04T02:32:57.404Z,6.50
2023-02-04T02:35:24.170Z,6.50
2023-02-04T02:37:50.876Z,6.50
2023-02-04T02:40:17.805Z,6.50
2023-02-04T02:42:48.589Z,6.50
2023-02-04T02:45:22.564Z,6.40
2023-02-04T02:47:50.069Z,6.40
2023-02-04T02:50:21.430Z,6.40
2023-02-04T02:52:48.248Z,6.20
2023-02-04T02:55:20.709Z,6.20
2023-02-04T02:57:49.118Z,6.20
2023-02-04T03:00:27.276Z,6.00
2023-02-04T03:03:00.417Z,6.20
2023-02-04T03:05:29.968Z,6.20
2023-02-04T03:07:56.584Z,6.20
2023-02-04T03:10:23.237Z,6.20
2023-02-04T03:12:50.140Z,6.20
2023-02-04T03:15:17.121Z,6.20
2023-02-04T03:17:44.472Z,6.20
2023-02-04T03:20:13.188Z,6.20
2023-02-04T03:22:39.874Z,6.20
2023-02-04T03:25:07.057Z,6.20
2023-02-04T03:27:33.788Z,6.20
2023-02-04T03:30:00.421Z,6.20
2023-02-04T03:32:27.068Z,6.20
2023-02-04T03:34:53.712Z,6.20
2023-02-04T03:37:20.264Z,6.20
2023-02-04T03:39:46.927Z,6.10
2023-02-04T03:42:13.554Z,6.10
2023-02-04T03:44:40.177Z,6.10
2023-02-04T03:47:06.782Z,6.10
2023-02-04T03:49:35.314Z,6.10
2023-02-04T03:52:02.761Z,6.00
2023-02-04T03:54:29.311Z,6.00
2023-02-04T03:56:55.852Z,6.00
2023-02-04T03:59:22.390Z,6.00
2023-02-04T04:01:49.015Z,6.00
2023-02-04T04:04:15.654Z,5.90
2023-02-04T04:06:42.345Z,6.00
2023-02-04T04:09:09.078Z,6.00
2023-02-04T04:11:35.643Z,5.90
2023-02-04T04:14:02.258Z,6.00
2023-02-04T04:16:29.071Z,5.90
2023-02-04T04:18:56.126Z,6.00
2023-02-04T04:21:22.717Z,6.00
2023-02-04T04:23:49.296Z,6.00
2023-02-04T04:26:17.267Z,6.00
2023-02-04T04:28:43.860Z,6.00
2023-02-04T04:31:10.532Z,5.90
2023-02-04T04:33:37.210Z,5.90
2023-02-04T04:36:04.118Z,5.90
2023-02-04T04:38:30.708Z,5.90
2023-02-04T04:40:57.291Z,6.00
2023-02-04T04:43:23.918Z,5.90
2023-02-04T04:45:50.562Z,5.90
2023-02-04T04:48:17.240Z,5.90
2023-02-04T04:50:43.857Z,5.90
2023-02-04T04:53:11.389Z,5.90
2023-02-04T04:55:38.961Z,5.90
2023-02-04T04:58:06.842Z,5.90
2023-02-04T05:00:34.275Z,5.90
2023-02-04T05:03:01.264Z,5.90
2023-02-04T05:05:27.895Z,5.90
2023-02-04T05:07:54.515Z,5.90
2023-02-04T05:10:21.220Z,5.90
2023-02-04T05:12:47.818Z,5.90
2023-02-04T05:15:14.451Z,5.90
2023-02-04T05:17:41.080Z,5.90
2023-02-04T05:20:08.555Z,5.90
2023-02-04T05:22:35.130Z,5.90
2023-02-04T05:25:01.714Z,5.90
2023-02-04T05:27:28.269Z,5.90
2023-02-04T05:29:54.813Z,5.90
2023-02-04T05:32:21.497Z,5.80
2023-02-04T05:34:48.355Z,5.80
2023-02-04T05:37:15.357Z,5.80
2023-02-04T05:39:41.908Z,5.70
2023-02-04T05:42:08.472Z,5.70
2023-02-04T05:44:35.022Z,5.60
2023-02-04T05:47:01.605Z,5.70
2023-02-04T05:49:28.158Z,5.60
2023-02-04T05:51:54.747Z,5.60
2023-02-04T05:54:21.359Z,5.60
2023-02-04T05:56:48.047Z,5.60
2023-02-04T05:59:14.914Z,5.60
2023-02-04T06:01:41.535Z,5.50
2023-02-04T06:04:08.189Z,5.50
2023-02-04T06:06:34.770Z,5.40
2023-02-04T06:09:01.496Z,5.40
2023-02-04T06:11:28.515Z,5.40
2023-02-04T06:13:55.136Z,5.40
2023-02-04T06:16:21.724Z,5.40
2023-02-04T06:18:48.299Z,5.40
2023-02-04T06:21:14.853Z,5.40
2023-02-04T06:23:41.481Z,5.40
2023-02-04T06:26:08.065Z,5.40
2023-02-04T06:28:34.833Z,5.40
2023-02-04T06:31:01.484Z,5.40
2023-02-04T06:33:28.113Z,5.40
2023-02-04T06:35:54.777Z,5.40
2023-02-04T06:38:21.367Z,5.40
2023-02-04T06:40:49.306Z,5.40
2023-02-04T06:43:16.290Z,5.50
2023-02-04T06:45:43.048Z,5.50
2023-02-04T06:48:09.708Z,5.40
2023-02-04T06:50:36.269Z,5.50
2023-02-04T06:53:02.899Z,5.50
2023-02-04T06:55:30.276Z,5.50
2023-02-04T06:57:56.897Z,5.50
2023-02-04T07:00:23.495Z,5.50
2023-02-04T07:02:50.151Z,5.50
2023-02-04T07:05:16.902Z,5.50
2023-02-04T07:07:43.457Z,5.50
2023-02-04T07:10:10.349Z,5.50
2023-02-04T07:12:36.968Z,5.50
2023-02-04T07:15:03.638Z,5.50
2023-02-04T07:17:30.214Z,5.50
2023-02-04T07:19:56.773Z,5.40
2023-02-04T07:22:23.350Z,5.50
2023-02-04T07:24:49.919Z,5.60
2023-02-04T07:27:16.496Z,5.60
2023-02-04T07:29:43.053Z,5.60
2023-02-04T07:32:09.663Z,5.60
2023-02-04T07:34:36.369Z,5.60
2023-02-04T07:37:03.066Z,5.60
2023-02-04T07:39:29.651Z,5.50
2023-02-04T07:41:56.232Z,5.60
2023-02-04T07:44:22.947Z,5.60
2023-02-04T07:46:49.510Z,5.60
2023-02-04T07:49:16.432Z,5.60
2023-02-04T07:51:43.065Z,5.60
2023-02-04T07:54:09.746Z,5.60
2023-02-04T07:56:36.290Z,5.60
2023-02-04T07:59:02.860Z,5.60
2023-02-04T08:01:29.486Z,5.60
2023-02-04T08:03:56.067Z,5.60
2023-02-04T08:06:22.947Z,5.60
2023-02-04T08:08:49.505Z,5.70
2023-02-04T08:11:16.060Z,5.60
2023-02-04T08:13:42.628Z,5.60
2023-02-04T08:16:11.592Z,5.60
2023-02-04T08:18:38.448Z,5.60
2023-02-04T08:21:06.292Z,5.60
2023-02-04T08:23:33.384Z,5.70
2023-02-04T08:26:00.106Z,5.70
2023-02-04T08:28:26.667Z,5.70
2023-02-04T08:30:53.816Z,5.70
2023-02-04T08:33:22.165Z,5.70
2023-02-04T08:35:48.833Z,5.70
2023-02-04T08:38:15.396Z,5.70
2023-02-04T08:40:42.117Z,5.80
2023-02-04T08:43:08.790Z,5.80
2023-02-04T08:45:35.373Z,5.70
2023-02-04T08:48:02.000Z,5.80
2023-02-04T08:50:30.943Z,5.80
2023-02-04T08:52:57.893Z,5.90
2023-02-04T08:55:24.486Z,6.00
2023-02-04T08:57:51.040Z,6.10
2023-02-04T09:00:18.680Z,6.20
2023-02-04T09:02:45.344Z,6.30
2023-02-04T09:05:11.933Z,6.30
2023-02-04T09:07:38.503Z,6.30
2023-02-04T09:10:05.409Z,6.30
2023-02-04T09:12:31.990Z,6.20
2023-02-04T09:14:58.680Z,6.10
2023-02-04T09:17:25.329Z,6.10
2023-02-04T09:19:51.911Z,6.10
2023-02-04T09:22:18.521Z,6.10
2023-02-04T09:24:45.085Z,6.20
2023-02-04T09:27:11.661Z,6.20
2023-02-04T09:29:38.452Z,6.20
2023-02-04T09:32:05.224Z,6.20
2023-02-04T09:34:31.834Z,6.40
2023-02-04T09:36:58.404Z,6.60
2023-02-04T09:39:25.068Z,6.90
2023-02-04T09:41:54.101Z,7.20
2023-02-04T09:44:24.454Z,7.60
2023-02-04T09:46:54.654Z,7.60
2023-02-04T09:49:21.253Z,7.60
2023-02-04T09:51:48.853Z,7.60
2023-02-04T09:54:18.337Z,7.30
2023-02-04T09:56:45.514Z,7.20
2023-02-04T09:59:18.859Z,6.90
2023-02-04T10:01:55.599Z,6.90
2023-02-04T10:04:22.576Z,6.80
2023-02-04T10:06:49.489Z,6.80
2023-02-04T10:09:17.276Z,6.90
2023-02-04T10:11:46.595Z,7.10
2023-02-04T10:14:16.283Z,7.40
2023-02-04T10:16:43.761Z,7.60
2023-02-04T10:19:15.967Z,7.40
2023-02-04T10:21:44.646Z,7.50
2023-02-04T10:24:19.126Z,7.30
2023-02-04T10:26:47.816Z,7.40
2023-02-04T10:29:20.595Z,7.60
2023-02-04T10:31:50.000Z,7.90
2023-02-04T10:34:39.830Z,8.10
2023-02-04T10:37:22.029Z,8.30
2023-02-04T10:39:49.783Z,8.30
2023-02-04T10:42:24.219Z,8.30
2023-02-04T10:44:51.426Z,8.20
2023-02-04T10:47:31.106Z,8.10
2023-02-04T10:50:06.153Z,7.80
2023-02-04T10:52:43.022Z,7.60
2023-02-04T10:55:16.970Z,7.50
2023-02-04T10:57:46.816Z,7.40
2023-02-04T11:00:22.297Z,7.30
2023-02-04T11:03:12.174Z,7.20
2023-02-04T11:05:38.793Z,7.10
2023-02-04T11:08:30.963Z,7.00
2023-02-04T11:11:14.385Z,7.10
2023-02-04T11:13:50.021Z,7.30
2023-02-04T11:16:35.458Z,7.30
2023-02-04T11:19:10.756Z,7.40
2023-02-04T11:21:37.278Z,7.40
2023-02-04T11:24:11.098Z,7.40
2023-02-04T11:26:51.319Z,7.60
2023-02-04T11:29:35.070Z,7.80
2023-02-04T11:32:38.205Z,8.10
2023-02-04T11:35:10.913Z,8.40
2023-02-04T11:37:43.304Z,8.30
2023-02-04T11:40:31.894Z,8.30
2023-02-04T11:43:04.266Z,8.30
2023-02-04T11:45:34.039Z,8.10
2023-02-04T11:48:04.195Z,7.70
2023-02-04T11:50:34.096Z,7.70
2023-02-04T11:53:04.719Z,7.60
2023-02-04T11:55:35.718Z,7.80
2023-02-04T11:58:02.974Z,8.00
2023-02-04T12:00:32.429Z,8.10
2023-02-04T12:03:10.641Z,8.10
2023-02-04T12:05:43.054Z,7.90
2023-02-04T12:08:24.467Z,7.80
2023-02-04T12:10:59.251Z,8.00
2023-02-04T12:13:26.885Z,8.30
2023-02-04T12:16:05.396Z,8.60
2023-02-04T12:18:34.128Z,8.60
2023-02-04T12:23:29.819Z,9.00
2023-02-04T12:25:56.939Z,8.80
2023-02-04T12:28:24.257Z,8.90
2023-02-04T12:30:51.042Z,9.00
2023-02-04T12:33:17.761Z,9.10
2023-02-04T12:35:44.317Z,8.90
2023-02-04T12:38:11.000Z,8.90
2023-02-04T12:40:38.246Z,8.80
2023-02-04T12:43:04.860Z,9.00
2023-02-04T12:45:31.942Z,9.00
2023-02-04T12:47:58.776Z,8.80
2023-02-04T12:50:26.176Z,8.50
2023-02-04T12:52:58.132Z,8.40
2023-02-04T12:55:27.135Z,8.00
2023-02-04T12:57:54.201Z,7.90
2023-02-04T13:00:21.651Z,7.70
2023-02-04T13:02:48.972Z,7.70
2023-02-04T13:05:16.320Z,7.70
2023-02-04T13:07:42.968Z,7.60
2023-02-04T13:10:10.354Z,7.60
2023-02-04T13:12:36.976Z,7.30
2023-02-04T13:15:04.770Z,7.10
2023-02-04T13:17:31.568Z,7.10
2023-02-04T13:19:58.228Z,7.20
2023-02-04T13:22:24.896Z,7.40
2023-02-04T13:24:51.532Z,7.90
2023-02-04T13:27:18.175Z,8.40
2023-02-04T13:29:44.972Z,8.90
2023-02-04T13:32:11.671Z,8.80
2023-02-04T13:34:38.249Z,8.50
2023-02-04T13:37:05.054Z,8.20
2023-02-04T13:39:31.710Z,7.90
2023-02-04T13:41:58.296Z,7.80
2023-02-04T13:44:24.883Z,7.70
2023-02-04T13:46:52.007Z,7.40
2023-02-04T13:49:18.844Z,7.40
2023-02-04T13:51:45.404Z,7.50
2023-02-04T13:54:12.734Z,7.30
2023-02-04T13:56:41.188Z,7.30
2023-02-04T13:59:07.857Z,7.40
2023-02-04T14:01:34.459Z,7.30
2023-02-04T14:04:01.128Z,7.30
2023-02-04T14:06:33.240Z,7.20
2023-02-04T14:09:03.798Z,7.20
2023-02-04T14:11:30.547Z,7.20
2023-02-04T14:13:57.128Z,7.20
2023-02-04T14:16:23.818Z,7.20
2023-02-04T14:18:50.480Z,7.30
2023-02-04T14:21:17.165Z,7.40
2023-02-04T14:23:43.759Z,7.30
2023-02-04T14:26:10.387Z,7.20
2023-02-04T14:28:36.991Z,7.00
2023-02-04T14:31:03.712Z,6.90
2023-02-04T14:33:30.297Z,6.80
2023-02-04T14:35:56.889Z,6.80
2023-02-04T14:38:23.872Z,6.80
2023-02-04T14:40:50.454Z,6.90
2023-02-04T14:43:17.065Z,7.00
2023-02-04T14:45:43.680Z,7.10
2023-02-04T14:48:10.407Z,7.00
2023-02-04T14:50:36.964Z,7.10
2023-02-04T14:53:03.779Z,7.00
2023-02-04T14:55:30.362Z,7.20
2023-02-04T14:57:56.960Z,7.00
2023-02-04T15:00:24.060Z,7.20
2023-02-04T15:02:51.018Z,7.10
2023-02-04T15:05:17.668Z,6.90
2023-02-04T15:07:44.308Z,6.70
2023-02-04T15:10:15.058Z,6.60
2023-02-04T15:12:41.955Z,6.50
2023-02-04T15:15:09.080Z,6.40
2023-02-04T15:17:35.843Z,6.30
2023-02-04T15:20:04.018Z,6.20
2023-02-04T15:22:30.646Z,6.20
2023-02-04T15:24:57.364Z,6.20
2023-02-04T15:27:24.371Z,6.20
2023-02-04T15:29:50.981Z,6.30
2023-02-04T15:32:17.560Z,6.30
2023-02-04T15:34:44.113Z,6.40
2023-02-04T15:37:10.988Z,6.40
2023-02-04T15:39:40.389Z,6.50
2023-02-04T15:42:06.982Z,6.30
2023-02-04T15:44:34.108Z,6.30
2023-02-04T15:47:00.751Z,6.30
2023-02-04T15:49:27.390Z,6.10
2023-02-04T15:51:54.109Z,6.10
2023-02-04T15:54:20.668Z,6.00
2023-02-04T15:56:48.502Z,6.00
2023-02-04T15:59:15.882Z,5.90
2023-02-04T16:01:42.492Z,5.90
2023-02-04T16:04:09.733Z,5.80
2023-02-04T16:06:36.413Z,5.70
2023-02-04T16:09:04.208Z,5.70
2023-02-04T16:11:31.200Z,5.50
2023-02-04T16:13:58.683Z,5.30
2023-02-04T16:16:25.443Z,5.30
2023-02-04T16:18:52.079Z,5.20
2023-02-04T16:21:18.712Z,5.10
2023-02-04T16:23:45.359Z,5.00
2023-02-04T16:26:11.915Z,5.00
2023-02-04T16:28:38.484Z,5.00
2023-02-04T16:31:05.345Z,4.90
2023-02-04T16:33:31.977Z,4.80
2023-02-04T16:36:05.121Z,4.70
2023-02-04T16:38:31.787Z,4.50
2023-02-04T16:40:58.475Z,4.50
2023-02-04T16:43:25.323Z,4.50
2023-02-04T16:45:52.206Z,4.60
2023-02-04T16:48:18.809Z,4.60
2023-02-04T16:50:45.410Z,4.40
2023-02-04T16:53:15.823Z,4.50
2023-02-04T16:55:46.633Z,4.50
2023-02-04T16:58:14.038Z,4.40
2023-02-04T17:00:44.798Z,4.50
2023-02-04T17:03:12.425Z,4.30
2023-02-04T17:05:39.678Z,4.20
2023-02-04T17:08:06.951Z,4.10
2023-02-04T17:10:52.600Z,4.00
2023-02-04T17:13:19.724Z,4.20
2023-02-04T17:15:46.342Z,4.20
2023-02-04T17:18:12.939Z,4.30
2023-02-04T17:20:39.783Z,4.20
2023-02-04T17:23:06.339Z,4.20
2023-02-04T17:25:33.128Z,4.10
2023-02-04T17:27:59.942Z,4.10
2023-02-04T17:30:26.601Z,4.00
2023-02-04T17:32:53.238Z,3.90
2023-02-04T17:35:19.898Z,4.00
2023-02-04T17:37:46.499Z,3.70
2023-02-04T17:40:13.069Z,3.50
2023-02-04T17:42:40.332Z,3.30
2023-02-04T17:45:10.256Z,3.10
2023-02-04T17:47:38.391Z,2.90
2023-02-04T17:50:07.642Z,2.70
2023-02-04T17:52:34.453Z,2.60
2023-02-04T17:55:02.350Z,2.60
2023-02-04T17:57:29.224Z,2.50
2023-02-04T17:59:55.756Z,2.50
2023-02-04T18:02:29.591Z,2.60
2023-02-04T18:05:03.009Z,2.60
